sensor_id;sensor_type;location;lat;lon;timestamp;temperature;humidity
75357;HTU21D;63946;51.986;5.930;2023-06-10T05:53:42;23.75;42.62
75357;HTU21D;63946;51.986;5.930;2023-06-10T05:56:13;23.70;42.88
75357;HTU21D;63946;51.986;5.930;2023-06-10T05:58:42;23.74;42.68
75357;HTU21D;63946;51.986;5.930;2023-06-10T06:01:11;23.75;42.48
75357;HTU21D;63946;51.986;5.930;2023-06-10T06:03:40;23.81;42.39
75357;HTU21D;63946;51.986;5.930;2023-06-10T06:06:09;23.98;42.16
75357;HTU21D;63946;51.986;5.930;2023-06-10T06:08:38;24.10;41.75
75357;HTU21D;63946;51.986;5.930;2023-06-10T06:11:06;24.10;41.56
75357;HTU21D;63946;51.986;5.930;2023-06-10T06:13:38;24.10;41.94
75357;HTU21D;63946;51.986;5.930;2023-06-10T06:16:07;24.30;41.45
75357;HTU21D;63946;51.986;5.930;2023-06-10T06:18:36;24.20;41.13
75357;HTU21D;63946;51.986;5.930;2023-06-10T06:21:05;23.86;41.78
75357;HTU21D;63946;51.986;5.930;2023-06-10T06:23:33;23.91;42.00
75357;HTU21D;63946;51.986;5.930;2023-06-10T06:26:02;23.97;41.78
75357;HTU21D;63946;51.986;5.930;2023-06-10T06:28:31;24.19;41.52
75357;HTU21D;63946;51.986;5.930;2023-06-10T06:31:00;24.31;41.11
75357;HTU21D;63946;51.986;5.930;2023-06-10T06:33:29;24.21;41.15
75357;HTU21D;63946;51.986;5.930;2023-06-10T06:35:57;24.26;41.29
75357;HTU21D;63946;51.986;5.930;2023-06-10T06:38:26;24.41;41.08
75357;HTU21D;63946;51.986;5.930;2023-06-10T06:40:55;24.55;40.73
75357;HTU21D;63946;51.986;5.930;2023-06-10T06:43:29;24.61;40.49
75357;HTU21D;63946;51.986;5.930;2023-06-10T06:46:23;24.73;40.47
75357;HTU21D;63946;51.986;5.930;2023-06-10T06:48:51;24.86;40.34
75357;HTU21D;63946;51.986;5.930;2023-06-10T06:51:20;24.94;40.11
75357;HTU21D;63946;51.986;5.930;2023-06-10T06:53:49;24.95;39.98
75357;HTU21D;63946;51.986;5.930;2023-06-10T06:56:20;24.87;40.14
75357;HTU21D;63946;51.986;5.930;2023-06-10T06:58:49;24.77;40.20
75357;HTU21D;63946;51.986;5.930;2023-06-10T07:01:18;24.76;39.94
75357;HTU21D;63946;51.986;5.930;2023-06-10T07:03:47;24.91;39.97
75357;HTU21D;63946;51.986;5.930;2023-06-10T07:06:16;25.06;39.72
75357;HTU21D;63946;51.986;5.930;2023-06-10T07:08:44;25.00;39.37
75357;HTU21D;63946;51.986;5.930;2023-06-10T07:11:13;24.85;39.56
75357;HTU21D;63946;51.986;5.930;2023-06-10T07:13:43;24.90;39.57
75357;HTU21D;63946;51.986;5.930;2023-06-10T07:16:12;25.02;39.58
75357;HTU21D;63946;51.986;5.930;2023-06-10T07:18:40;25.22;39.07
75357;HTU21D;63946;51.986;5.930;2023-06-10T07:21:09;25.34;38.92
75357;HTU21D;63946;51.986;5.930;2023-06-10T07:23:41;25.46;38.55
75357;HTU21D;63946;51.986;5.930;2023-06-10T07:26:11;25.42;38.81
75357;HTU21D;63946;51.986;5.930;2023-06-10T07:28:43;25.57;38.40
75357;HTU21D;63946;51.986;5.930;2023-06-10T07:31:11;25.67;38.35
75357;HTU21D;63946;51.986;5.930;2023-06-10T07:33:40;25.88;37.66
75357;HTU21D;63946;51.986;5.930;2023-06-10T07:36:09;25.76;37.43
75357;HTU21D;63946;51.986;5.930;2023-06-10T07:38:38;25.58;37.88
75357;HTU21D;63946;51.986;5.930;2023-06-10T07:41:08;25.60;38.04
75357;HTU21D;63946;51.986;5.930;2023-06-10T07:43:37;25.86;37.63
75357;HTU21D;63946;51.986;5.930;2023-06-10T07:46:06;26.04;37.46
75357;HTU21D;63946;51.986;5.930;2023-06-10T07:48:35;26.15;36.82
75357;HTU21D;63946;51.986;5.930;2023-06-10T07:51:03;25.99;36.97
75357;HTU21D;63946;51.986;5.930;2023-06-10T07:53:32;26.02;36.87
75357;HTU21D;63946;51.986;5.930;2023-06-10T07:56:01;26.03;37.09
75357;HTU21D;63946;51.986;5.930;2023-06-10T07:58:30;26.36;36.96
75357;HTU21D;63946;51.986;5.930;2023-06-10T08:00:59;26.65;36.51
75357;HTU21D;63946;51.986;5.930;2023-06-10T08:03:30;26.87;35.82
75357;HTU21D;63946;51.986;5.930;2023-06-10T08:05:59;27.00;35.57
75357;HTU21D;63946;51.986;5.930;2023-06-10T08:08:28;27.04;35.18
75357;HTU21D;63946;51.986;5.930;2023-06-10T08:10:57;27.06;34.98
75357;HTU21D;63946;51.986;5.930;2023-06-10T08:13:26;27.25;34.86
75357;HTU21D;63946;51.986;5.930;2023-06-10T08:15:54;27.47;34.58
75357;HTU21D;63946;51.986;5.930;2023-06-10T08:18:23;27.42;34.52
75357;HTU21D;63946;51.986;5.930;2023-06-10T08:20:52;27.50;34.58
75357;HTU21D;63946;51.986;5.930;2023-06-10T08:23:21;27.60;33.83
75357;HTU21D;63946;51.986;5.930;2023-06-10T08:25:50;27.29;34.13
75357;HTU21D;63946;51.986;5.930;2023-06-10T08:28:18;27.14;34.56
75357;HTU21D;63946;51.986;5.930;2023-06-10T08:30:47;27.34;34.42
75357;HTU21D;63946;51.986;5.930;2023-06-10T08:33:16;27.46;34.17
75357;HTU21D;63946;51.986;5.930;2023-06-10T08:35:45;27.51;33.81
75357;HTU21D;63946;51.986;5.930;2023-06-10T08:38:13;27.51;33.80
75357;HTU21D;63946;51.986;5.930;2023-06-10T08:40:42;27.64;33.54
75357;HTU21D;63946;51.986;5.930;2023-06-10T08:43:24;27.49;33.57
75357;HTU21D;63946;51.986;5.930;2023-06-10T08:45:59;27.56;33.64
75357;HTU21D;63946;51.986;5.930;2023-06-10T08:48:29;27.82;33.31
75357;HTU21D;63946;51.986;5.930;2023-06-10T08:51:01;27.76;33.23
75357;HTU21D;63946;51.986;5.930;2023-06-10T08:53:33;27.98;32.94
75357;HTU21D;63946;51.986;5.930;2023-06-10T08:56:05;28.03;32.75
75357;HTU21D;63946;51.986;5.930;2023-06-10T08:58:34;28.06;32.98
75357;HTU21D;63946;51.986;5.930;2023-06-10T09:01:10;28.32;32.57
75357;HTU21D;63946;51.986;5.930;2023-06-10T09:03:42;28.47;32.14
75357;HTU21D;63946;51.986;5.930;2023-06-10T09:06:12;28.61;32.03
75357;HTU21D;63946;51.986;5.930;2023-06-10T09:08:42;28.87;31.99
75357;HTU21D;63946;51.986;5.930;2023-06-10T09:11:11;29.06;31.72
75357;HTU21D;63946;51.986;5.930;2023-06-10T09:13:40;29.24;31.29
75357;HTU21D;63946;51.986;5.930;2023-06-10T09:16:09;29.29;30.66
75357;HTU21D;63946;51.986;5.930;2023-06-10T09:18:42;29.06;30.70
75357;HTU21D;63946;51.986;5.930;2023-06-10T09:21:11;29.00;30.77
75357;HTU21D;63946;51.986;5.930;2023-06-10T09:23:40;28.97;30.90
75357;HTU21D;63946;51.986;5.930;2023-06-10T09:26:09;29.24;31.13
75357;HTU21D;63946;51.986;5.930;2023-06-10T09:28:39;29.64;30.51
75357;HTU21D;63946;51.986;5.930;2023-06-10T09:31:08;29.70;29.82
75357;HTU21D;63946;51.986;5.930;2023-06-10T09:33:38;29.37;29.66
75357;HTU21D;63946;51.986;5.930;2023-06-10T09:36:07;29.22;30.08
75357;HTU21D;63946;51.986;5.930;2023-06-10T09:38:39;29.21;30.00
75357;HTU21D;63946;51.986;5.930;2023-06-10T09:41:07;29.23;29.85
75357;HTU21D;63946;51.986;5.930;2023-06-10T09:43:44;29.22;29.69
75357;HTU21D;63946;51.986;5.930;2023-06-10T09:46:19;29.28;29.55
75357;HTU21D;63946;51.986;5.930;2023-06-10T09:48:48;29.36;29.86
75357;HTU21D;63946;51.986;5.930;2023-06-10T09:51:18;29.64;29.68
75357;HTU21D;63946;51.986;5.930;2023-06-10T09:53:53;29.74;28.90
75357;HTU21D;63946;51.986;5.930;2023-06-10T09:56:32;29.74;29.17
75357;HTU21D;63946;51.986;5.930;2023-06-10T09:59:02;29.87;29.06
75357;HTU21D;63946;51.986;5.930;2023-06-10T10:01:32;30.03;28.61
75357;HTU21D;63946;51.986;5.930;2023-06-10T10:04:04;30.22;28.76
75357;HTU21D;63946;51.986;5.930;2023-06-10T10:06:34;30.47;28.04
75357;HTU21D;63946;51.986;5.930;2023-06-10T10:09:02;30.35;27.41
75357;HTU21D;63946;51.986;5.930;2023-06-10T10:11:34;30.37;27.04
75357;HTU21D;63946;51.986;5.930;2023-06-10T10:14:03;30.30;26.73
75357;HTU21D;63946;51.986;5.930;2023-06-10T10:16:36;30.18;26.96
75357;HTU21D;63946;51.986;5.930;2023-06-10T10:19:28;30.31;27.02
75357;HTU21D;63946;51.986;5.930;2023-06-10T10:22:08;30.52;26.30
75357;HTU21D;63946;51.986;5.930;2023-06-10T10:24:45;30.48;26.27
75357;HTU21D;63946;51.986;5.930;2023-06-10T10:27:21;30.23;27.03
75357;HTU21D;63946;51.986;5.930;2023-06-10T10:29:53;30.41;26.76
75357;HTU21D;63946;51.986;5.930;2023-06-10T10:32:29;30.61;26.04
75357;HTU21D;63946;51.986;5.930;2023-06-10T10:35:15;30.48;26.47
75357;HTU21D;63946;51.986;5.930;2023-06-10T10:37:53;30.52;25.97
75357;HTU21D;63946;51.986;5.930;2023-06-10T10:40:24;30.59;25.40
75357;HTU21D;63946;51.986;5.930;2023-06-10T10:42:56;30.52;24.78
75357;HTU21D;63946;51.986;5.930;2023-06-10T10:45:30;30.41;24.73
75357;HTU21D;63946;51.986;5.930;2023-06-10T10:48:06;30.38;24.86
75357;HTU21D;63946;51.986;5.930;2023-06-10T10:50:38;30.72;24.55
75357;HTU21D;63946;51.986;5.930;2023-06-10T10:53:10;30.89;23.88
75357;HTU21D;63946;51.986;5.930;2023-06-10T10:55:39;30.97;23.81
75357;HTU21D;63946;51.986;5.930;2023-06-10T10:58:10;30.86;23.46
75357;HTU21D;63946;51.986;5.930;2023-06-10T11:00:45;30.93;23.31
75357;HTU21D;63946;51.986;5.930;2023-06-10T11:03:15;31.00;23.17
75357;HTU21D;63946;51.986;5.930;2023-06-10T11:05:46;31.15;23.34
75357;HTU21D;63946;51.986;5.930;2023-06-10T11:11:22;30.70;22.89
75357;HTU21D;63946;51.986;5.930;2023-06-10T11:16:40;30.74;22.82
75357;HTU21D;63946;51.986;5.930;2023-06-10T11:19:10;30.87;22.70
75357;HTU21D;63946;51.986;5.930;2023-06-10T11:21:57;31.00;22.34
75357;HTU21D;63946;51.986;5.930;2023-06-10T11:24:28;30.94;22.57
75357;HTU21D;63946;51.986;5.930;2023-06-10T11:27:19;30.93;22.95
75357;HTU21D;63946;51.986;5.930;2023-06-10T11:32:34;31.08;21.78
75357;HTU21D;63946;51.986;5.930;2023-06-10T11:35:09;31.12;22.38
75357;HTU21D;63946;51.986;5.930;2023-06-10T11:37:38;31.27;21.95
75357;HTU21D;63946;51.986;5.930;2023-06-10T11:40:08;31.13;21.36
75357;HTU21D;63946;51.986;5.930;2023-06-10T11:42:40;31.00;21.89
75357;HTU21D;63946;51.986;5.930;2023-06-10T11:45:09;30.86;22.21
75357;HTU21D;63946;51.986;5.930;2023-06-10T11:47:38;30.82;22.02
75357;HTU21D;63946;51.986;5.930;2023-06-10T11:50:07;30.83;22.42
75357;HTU21D;63946;51.986;5.930;2023-06-10T11:52:36;31.02;22.47
75357;HTU21D;63946;51.986;5.930;2023-06-10T11:55:10;31.00;21.85
75357;HTU21D;63946;51.986;5.930;2023-06-10T11:57:39;30.90;21.97
75357;HTU21D;63946;51.986;5.930;2023-06-10T12:00:08;30.96;21.98
75357;HTU21D;63946;51.986;5.930;2023-06-10T12:02:40;31.06;21.33
75357;HTU21D;63946;51.986;5.930;2023-06-10T12:05:12;30.97;21.15
75357;HTU21D;63946;51.986;5.930;2023-06-10T12:07:41;30.95;21.76
75357;HTU21D;63946;51.986;5.930;2023-06-10T12:10:10;31.28;21.95
75357;HTU21D;63946;51.986;5.930;2023-06-10T12:12:39;31.53;21.34
75357;HTU21D;63946;51.986;5.930;2023-06-10T12:15:09;31.38;21.50
75357;HTU21D;63946;51.986;5.930;2023-06-10T12:17:38;31.38;21.39
75357;HTU21D;63946;51.986;5.930;2023-06-10T12:20:12;31.43;21.08
75357;HTU21D;63946;51.986;5.930;2023-06-10T12:22:52;31.28;21.58
75357;HTU21D;63946;51.986;5.930;2023-06-10T12:25:25;31.30;21.50
75357;HTU21D;63946;51.986;5.930;2023-06-10T12:27:56;31.31;21.50
75357;HTU21D;63946;51.986;5.930;2023-06-10T12:30:26;31.42;21.44
75357;HTU21D;63946;51.986;5.930;2023-06-10T12:32:55;31.57;21.50
75357;HTU21D;63946;51.986;5.930;2023-06-10T12:35:25;31.79;21.44
75357;HTU21D;63946;51.986;5.930;2023-06-10T12:37:55;31.94;21.08
75357;HTU21D;63946;51.986;5.930;2023-06-10T12:42:58;31.98;19.77
75357;HTU21D;63946;51.986;5.930;2023-06-10T12:45:34;31.76;20.19
75357;HTU21D;63946;51.986;5.930;2023-06-10T12:50:40;31.93;20.11
75357;HTU21D;63946;51.986;5.930;2023-06-10T12:53:11;31.99;19.86
75357;HTU21D;63946;51.986;5.930;2023-06-10T12:55:40;31.95;20.21
75357;HTU21D;63946;51.986;5.930;2023-06-10T12:58:13;31.95;19.99
75357;HTU21D;63946;51.986;5.930;2023-06-10T13:00:42;31.93;20.37
75357;HTU21D;63946;51.986;5.930;2023-06-10T13:03:11;32.01;20.23
75357;HTU21D;63946;51.986;5.930;2023-06-10T13:05:40;31.89;19.88
75357;HTU21D;63946;51.986;5.930;2023-06-10T13:08:09;31.80;20.37
75357;HTU21D;63946;51.986;5.930;2023-06-10T13:10:38;31.93;20.60
75357;HTU21D;63946;51.986;5.930;2023-06-10T13:13:08;32.01;20.08
75357;HTU21D;63946;51.986;5.930;2023-06-10T13:15:40;31.99;20.18
75357;HTU21D;63946;51.986;5.930;2023-06-10T13:18:09;32.04;20.05
75357;HTU21D;63946;51.986;5.930;2023-06-10T13:20:38;32.04;20.58
75357;HTU21D;63946;51.986;5.930;2023-06-10T13:23:09;32.12;20.02
75357;HTU21D;63946;51.986;5.930;2023-06-10T13:25:38;32.10;20.14
75357;HTU21D;63946;51.986;5.930;2023-06-10T13:28:10;32.20;19.92
75357;HTU21D;63946;51.986;5.930;2023-06-10T13:30:42;32.19;19.90
75357;HTU21D;63946;51.986;5.930;2023-06-10T13:33:11;32.17;19.72
75357;HTU21D;63946;51.986;5.930;2023-06-10T13:35:39;32.22;19.67
75357;HTU21D;63946;51.986;5.930;2023-06-10T13:38:09;32.10;19.88
75357;HTU21D;63946;51.986;5.930;2023-06-10T13:40:38;31.95;19.81
75357;HTU21D;63946;51.986;5.930;2023-06-10T13:43:09;31.92;19.89
75357;HTU21D;63946;51.986;5.930;2023-06-10T13:45:39;31.95;19.89
75357;HTU21D;63946;51.986;5.930;2023-06-10T13:48:08;32.01;19.79
75357;HTU21D;63946;51.986;5.930;2023-06-10T13:50:37;32.09;19.71
75357;HTU21D;63946;51.986;5.930;2023-06-10T13:53:06;31.92;20.23
75357;HTU21D;63946;51.986;5.930;2023-06-10T13:55:35;31.94;20.31
75357;HTU21D;63946;51.986;5.930;2023-06-10T13:58:04;32.05;20.76
75357;HTU21D;63946;51.986;5.930;2023-06-10T14:00:32;32.35;20.66
75357;HTU21D;63946;51.986;5.930;2023-06-10T14:03:04;32.52;20.18
75357;HTU21D;63946;51.986;5.930;2023-06-10T14:05:33;32.46;19.96
75357;HTU21D;63946;51.986;5.930;2023-06-10T14:08:01;32.37;19.76
75357;HTU21D;63946;51.986;5.930;2023-06-10T14:10:30;32.15;19.63
75357;HTU21D;63946;51.986;5.930;2023-06-10T14:12:59;32.09;19.73
75357;HTU21D;63946;51.986;5.930;2023-06-10T14:15:28;32.18;19.96
75357;HTU21D;63946;51.986;5.930;2023-06-10T14:17:58;32.08;19.89
75357;HTU21D;63946;51.986;5.930;2023-06-10T14:20:26;32.02;20.08
75357;HTU21D;63946;51.986;5.930;2023-06-10T14:22:58;32.00;19.98
75357;HTU21D;63946;51.986;5.930;2023-06-10T14:25:26;32.04;19.70
75357;HTU21D;63946;51.986;5.930;2023-06-10T14:27:55;31.96;19.33
75357;HTU21D;63946;51.986;5.930;2023-06-10T14:30:24;31.83;19.45
75357;HTU21D;63946;51.986;5.930;2023-06-10T14:32:53;31.79;19.76
75357;HTU21D;63946;51.986;5.930;2023-06-10T14:35:21;31.86;20.20
75357;HTU21D;63946;51.986;5.930;2023-06-10T14:37:50;31.93;20.13
75357;HTU21D;63946;51.986;5.930;2023-06-10T14:40:19;32.08;20.34
75357;HTU21D;63946;51.986;5.930;2023-06-10T14:42:50;32.18;20.23
75357;HTU21D;63946;51.986;5.930;2023-06-10T14:45:19;32.14;20.05
75357;HTU21D;63946;51.986;5.930;2023-06-10T14:47:48;31.98;19.92
75357;HTU21D;63946;51.986;5.930;2023-06-10T14:50:17;31.83;19.94
75357;HTU21D;63946;51.986;5.930;2023-06-10T14:52:45;31.74;20.03
75357;HTU21D;63946;51.986;5.930;2023-06-10T14:55:14;31.69;20.07
75357;HTU21D;63946;51.986;5.930;2023-06-10T14:57:43;31.59;20.12
75357;HTU21D;63946;51.986;5.930;2023-06-10T15:00:15;31.64;20.12
75357;HTU21D;63946;51.986;5.930;2023-06-10T15:02:48;31.67;20.70
75357;HTU21D;63946;51.986;5.930;2023-06-10T15:05:17;31.79;20.28
75357;HTU21D;63946;51.986;5.930;2023-06-10T15:07:47;31.76;20.21
75357;HTU21D;63946;51.986;5.930;2023-06-10T15:10:16;31.73;20.02
75357;HTU21D;63946;51.986;5.930;2023-06-10T15:12:47;31.65;20.23
75357;HTU21D;63946;51.986;5.930;2023-06-10T15:15:24;31.63;20.28
75357;HTU21D;63946;51.986;5.930;2023-06-10T15:17:54;31.58;20.39
75357;HTU21D;63946;51.986;5.930;2023-06-10T15:20:25;31.51;20.64
75357;HTU21D;63946;51.986;5.930;2023-06-10T15:22:54;31.49;20.60
75357;HTU21D;63946;51.986;5.930;2023-06-10T15:25:23;31.54;20.75
75357;HTU21D;63946;51.986;5.930;2023-06-10T15:27:52;31.51;20.57
75357;HTU21D;63946;51.986;5.930;2023-06-10T15:30:21;31.51;20.77
75357;HTU21D;63946;51.986;5.930;2023-06-10T15:32:49;31.54;20.65
75357;HTU21D;63946;51.986;5.930;2023-06-10T15:35:18;31.48;20.70
75357;HTU21D;63946;51.986;5.930;2023-06-10T15:37:47;31.41;20.90
75357;HTU21D;63946;51.986;5.930;2023-06-10T15:40:16;31.37;20.86
75357;HTU21D;63946;51.986;5.930;2023-06-10T15:42:45;31.37;20.80
75357;HTU21D;63946;51.986;5.930;2023-06-10T15:45:14;31.38;21.00
75357;HTU21D;63946;51.986;5.930;2023-06-10T15:47:42;31.38;21.17
75357;HTU21D;63946;51.986;5.930;2023-06-10T15:50:11;31.34;20.88
75357;HTU21D;63946;51.986;5.930;2023-06-10T15:52:40;31.16;21.70
75357;HTU21D;63946;51.986;5.930;2023-06-10T15:55:09;31.18;21.50
75357;HTU21D;63946;51.986;5.930;2023-06-10T15:57:38;31.01;21.53
75357;HTU21D;63946;51.986;5.930;2023-06-10T16:00:07;30.86;21.59
75357;HTU21D;63946;51.986;5.930;2023-06-10T16:02:36;30.84;21.65
75357;HTU21D;63946;51.986;5.930;2023-06-10T16:05:05;30.83;21.89
75357;HTU21D;63946;51.986;5.930;2023-06-10T16:07:34;30.90;21.97
75357;HTU21D;63946;51.986;5.930;2023-06-10T16:10:03;30.89;21.89
75357;HTU21D;63946;51.986;5.930;2023-06-10T16:12:31;30.82;21.82
75357;HTU21D;63946;51.986;5.930;2023-06-10T16:15:00;30.81;21.92
75357;HTU21D;63946;51.986;5.930;2023-06-10T16:17:31;30.82;22.00
75357;HTU21D;63946;51.986;5.930;2023-06-10T16:20:00;30.83;21.82
75357;HTU21D;63946;51.986;5.930;2023-06-10T16:22:31;30.72;21.79
75357;HTU21D;63946;51.986;5.930;2023-06-10T16:25:00;30.63;22.02
75357;HTU21D;63946;51.986;5.930;2023-06-10T16:27:28;30.62;22.10
75357;HTU21D;63946;51.986;5.930;2023-06-10T16:29:57;30.63;22.14
75357;HTU21D;63946;51.986;5.930;2023-06-10T16:32:28;30.60;22.28
75357;HTU21D;63946;51.986;5.930;2023-06-10T16:34:59;30.53;22.50
75357;HTU21D;63946;51.986;5.930;2023-06-10T16:37:28;30.51;22.69
75357;HTU21D;63946;51.986;5.930;2023-06-10T16:39:57;30.49;22.70
75357;HTU21D;63946;51.986;5.930;2023-06-10T16:42:26;30.46;22.81
75357;HTU21D;63946;51.986;5.930;2023-06-10T16:44:54;30.44;22.79
75357;HTU21D;63946;51.986;5.930;2023-06-10T16:47:24;30.37;22.82
75357;HTU21D;63946;51.986;5.930;2023-06-10T16:49:52;30.39;22.92
75357;HTU21D;63946;51.986;5.930;2023-06-10T16:52:21;30.35;22.93
75357;HTU21D;63946;51.986;5.930;2023-06-10T16:54:50;30.26;23.03
75357;HTU21D;63946;51.986;5.930;2023-06-10T16:57:19;30.22;23.04
75357;HTU21D;63946;51.986;5.930;2023-06-10T16:59:48;30.21;23.15
75357;HTU21D;63946;51.986;5.930;2023-06-10T17:02:17;30.19;23.35
75357;HTU21D;63946;51.986;5.930;2023-06-10T17:04:45;30.19;23.19
75357;HTU21D;63946;51.986;5.930;2023-06-10T17:07:14;30.15;23.12
75357;HTU21D;63946;51.986;5.930;2023-06-10T17:09:43;30.07;23.31
75357;HTU21D;63946;51.986;5.930;2023-06-10T17:12:12;30.02;23.50
75357;HTU21D;63946;51.986;5.930;2023-06-10T17:14:41;30.01;23.72
75357;HTU21D;63946;51.986;5.930;2023-06-10T17:17:10;30.00;23.90
75357;HTU21D;63946;51.986;5.930;2023-06-10T17:19:39;29.95;24.00
75357;HTU21D;63946;51.986;5.930;2023-06-10T17:22:07;29.95;24.12
75357;HTU21D;63946;51.986;5.930;2023-06-10T17:24:36;29.88;24.16
75357;HTU21D;63946;51.986;5.930;2023-06-10T17:27:05;29.81;24.23
75357;HTU21D;63946;51.986;5.930;2023-06-10T17:29:34;29.73;24.20
75357;HTU21D;63946;51.986;5.930;2023-06-10T17:32:05;29.71;24.32
75357;HTU21D;63946;51.986;5.930;2023-06-10T17:34:34;29.65;24.44
75357;HTU21D;63946;51.986;5.930;2023-06-10T17:37:03;29.64;24.60
75357;HTU21D;63946;51.986;5.930;2023-06-10T17:39:31;29.62;24.66
75357;HTU21D;63946;51.986;5.930;2023-06-10T17:42:00;29.58;24.80
75357;HTU21D;63946;51.986;5.930;2023-06-10T17:44:29;29.54;24.91
75357;HTU21D;63946;51.986;5.930;2023-06-10T17:46:58;29.51;24.97
75357;HTU21D;63946;51.986;5.930;2023-06-10T17:49:27;29.50;24.98
75357;HTU21D;63946;51.986;5.930;2023-06-10T17:51:56;29.43;25.09
75357;HTU21D;63946;51.986;5.930;2023-06-10T17:54:28;29.37;25.36
75357;HTU21D;63946;51.986;5.930;2023-06-10T17:56:56;29.36;25.50
75357;HTU21D;63946;51.986;5.930;2023-06-10T17:59:25;29.37;25.60
75357;HTU21D;63946;51.986;5.930;2023-06-10T18:01:56;29.33;25.69
75357;HTU21D;63946;51.986;5.930;2023-06-10T18:04:25;29.29;25.69
75357;HTU21D;63946;51.986;5.930;2023-06-10T18:06:54;29.24;25.78
75357;HTU21D;63946;51.986;5.930;2023-06-10T18:09:29;29.17;25.97
75357;HTU21D;63946;51.986;5.930;2023-06-10T18:11:58;29.11;26.06
75357;HTU21D;63946;51.986;5.930;2023-06-10T18:14:27;29.07;26.14
75357;HTU21D;63946;51.986;5.930;2023-06-10T18:16:56;29.03;26.31
75357;HTU21D;63946;51.986;5.930;2023-06-10T18:19:26;28.98;26.44
75357;HTU21D;63946;51.986;5.930;2023-06-10T18:21:55;28.91;26.51
75357;HTU21D;63946;51.986;5.930;2023-06-10T18:24:24;28.87;26.68
75357;HTU21D;63946;51.986;5.930;2023-06-10T18:26:54;28.83;26.86
75357;HTU21D;63946;51.986;5.930;2023-06-10T18:29:23;28.76;27.00
75357;HTU21D;63946;51.986;5.930;2023-06-10T18:31:52;28.71;27.08
75357;HTU21D;63946;51.986;5.930;2023-06-10T18:34:31;28.68;27.30
75357;HTU21D;63946;51.986;5.930;2023-06-10T18:37:02;28.62;27.42
75357;HTU21D;63946;51.986;5.930;2023-06-10T18:39:31;28.59;27.62
75357;HTU21D;63946;51.986;5.930;2023-06-10T18:42:01;28.54;27.73
75357;HTU21D;63946;51.986;5.930;2023-06-10T18:44:35;28.50;27.90
75357;HTU21D;63946;51.986;5.930;2023-06-10T18:47:22;28.45;28.12
75357;HTU21D;63946;51.986;5.930;2023-06-10T18:49:52;28.40;28.26
75357;HTU21D;63946;51.986;5.930;2023-06-10T18:52:21;28.33;28.37
75357;HTU21D;63946;51.986;5.930;2023-06-10T18:54:50;28.25;28.51
75357;HTU21D;63946;51.986;5.930;2023-06-10T18:57:18;28.23;28.68
75357;HTU21D;63946;51.986;5.930;2023-06-10T18:59:47;28.17;28.75
75357;HTU21D;63946;51.986;5.930;2023-06-10T19:02:16;28.13;28.90
75357;HTU21D;63946;51.986;5.930;2023-06-10T19:04:47;28.09;29.03
75357;HTU21D;63946;51.986;5.930;2023-06-10T19:07:17;28.03;29.15
75357;HTU21D;63946;51.986;5.930;2023-06-10T19:09:46;27.98;29.27
75357;HTU21D;63946;51.986;5.930;2023-06-10T19:12:15;27.93;29.41
75357;HTU21D;63946;51.986;5.930;2023-06-10T19:14:43;27.89;29.49
75357;HTU21D;63946;51.986;5.930;2023-06-10T19:17:12;27.82;29.60
75357;HTU21D;63946;51.986;5.930;2023-06-10T19:19:44;27.78;29.77
75357;HTU21D;63946;51.986;5.930;2023-06-10T19:22:13;27.71;29.93
75357;HTU21D;63946;51.986;5.930;2023-06-10T19:24:42;27.64;30.06
75357;HTU21D;63946;51.986;5.930;2023-06-10T19:27:12;27.57;30.16
75357;HTU21D;63946;51.986;5.930;2023-06-10T19:29:41;27.52;30.27
75357;HTU21D;63946;51.986;5.930;2023-06-10T19:32:10;27.45;30.36
75357;HTU21D;63946;51.986;5.930;2023-06-10T19:34:39;27.39;30.45
75357;HTU21D;63946;51.986;5.930;2023-06-10T19:37:10;27.32;30.58
75357;HTU21D;63946;51.986;5.930;2023-06-10T19:39:39;27.28;30.70
75357;HTU21D;63946;51.986;5.930;2023-06-10T19:42:10;27.25;30.77
75357;HTU21D;63946;51.986;5.930;2023-06-10T19:44:42;27.19;30.93
75357;HTU21D;63946;51.986;5.930;2023-06-10T19:47:12;27.14;31.04
75357;HTU21D;63946;51.986;5.930;2023-06-10T19:49:43;27.08;31.15
75357;HTU21D;63946;51.986;5.930;2023-06-10T19:52:12;27.04;31.25
75357;HTU21D;63946;51.986;5.930;2023-06-10T19:54:41;26.97;31.36
75357;HTU21D;63946;51.986;5.930;2023-06-10T19:57:10;26.91;31.60
75357;HTU21D;63946;51.986;5.930;2023-06-10T19:59:39;26.86;31.69
75357;HTU21D;63946;51.986;5.930;2023-06-10T20:02:07;26.79;31.75
75357;HTU21D;63946;51.986;5.930;2023-06-10T20:04:45;26.75;31.94
75357;HTU21D;63946;51.986;5.930;2023-06-10T20:07:18;26.69;31.97
75357;HTU21D;63946;51.986;5.930;2023-06-10T20:09:47;26.63;32.05
75357;HTU21D;63946;51.986;5.930;2023-06-10T20:12:16;26.57;32.20
75357;HTU21D;63946;51.986;5.930;2023-06-10T20:14:45;26.53;32.24
75357;HTU21D;63946;51.986;5.930;2023-06-10T20:17:14;26.48;32.35
